Terminal Aerodrome Forecast
Issued by NWS Northern Indiana

Home | Current Version | Previous Version | Graphics & Text | Print | Product List | Glossary On
Versions: 1 2 3 4 5 6 7 8 9 10 11 12 13 14
000
FTUS43 KIWX 201121
TAFFWA
TAF
KFWA 201121Z 2012/2112 26005KT P6SM VCSH SCT060
     FM201600 24009KT P6SM SCT100
     FM202000 24010G19KT P6SM VCTS BKN150CB
     FM210200 29004KT P6SM BKN200=

USA.gov is the U.S. government's official web portal to all federal, state and local government web resources and services.